createdAt,value
2022-08-25T00:01:50.746Z,99.90
2022-08-25T00:04:21.273Z,99.90
2022-08-25T00:06:53.080Z,99.90
2022-08-25T00:09:24.983Z,99.90
2022-08-25T00:11:54.084Z,99.90
2022-08-25T00:14:28.579Z,99.90
2022-08-25T00:16:57.626Z,99.90
2022-08-25T00:19:28.773Z,99.90
2022-08-25T00:21:58.057Z,99.90
2022-08-25T00:24:27.128Z,99.90
2022-08-25T00:26:58.104Z,99.90
2022-08-25T00:29:29.144Z,99.90
2022-08-25T00:31:58.246Z,99.90
2022-08-25T00:34:29.906Z,99.90
2022-08-25T00:36:58.790Z,99.90
2022-08-25T00:39:28.270Z,99.90
2022-08-25T00:41:59.170Z,99.90
2022-08-25T00:44:32.682Z,99.90
2022-08-25T00:47:03.919Z,99.90
2022-08-25T00:49:37.291Z,99.90
2022-08-25T00:52:09.063Z,99.90
2022-08-25T00:54:42.270Z,99.90
2022-08-25T00:57:13.587Z,99.90
2022-08-25T00:59:44.645Z,99.90
2022-08-25T01:02:14.770Z,99.90
2022-08-25T01:04:48.981Z,99.90
2022-08-25T01:07:20.681Z,99.90
2022-08-25T01:09:53.566Z,99.90
2022-08-25T01:12:23.277Z,99.90
2022-08-25T01:14:55.102Z,99.90
2022-08-25T01:17:28.045Z,99.90
2022-08-25T01:19:56.993Z,99.90
2022-08-25T01:22:27.399Z,99.90
2022-08-25T01:25:04.200Z,99.90
2022-08-25T01:27:32.834Z,99.90
2022-08-25T01:30:01.716Z,99.90
2022-08-25T01:32:30.425Z,99.90
2022-08-25T01:34:59.157Z,99.90
2022-08-25T01:37:29.275Z,99.90
2022-08-25T01:39:58.006Z,99.90
2022-08-25T01:42:39.965Z,99.90
2022-08-25T01:45:10.564Z,99.90
2022-08-25T01:47:39.795Z,99.90
2022-08-25T01:50:09.397Z,99.90
2022-08-25T01:52:48.922Z,99.90
2022-08-25T01:55:17.919Z,99.90
2022-08-25T01:57:46.608Z,99.90
2022-08-25T02:00:17.121Z,99.90
2022-08-25T02:02:45.836Z,99.90
2022-08-25T02:05:20.326Z,99.90
2022-08-25T02:07:53.911Z,99.90
2022-08-25T02:10:22.708Z,99.90
2022-08-25T02:12:53.092Z,99.90
2022-08-25T02:15:23.427Z,99.90
2022-08-25T02:17:52.125Z,99.90
2022-08-25T02:20:20.794Z,99.90
2022-08-25T02:22:53.004Z,99.90
2022-08-25T02:25:27.140Z,99.90
2022-08-25T02:27:55.865Z,99.90
2022-08-25T02:30:24.877Z,99.90
2022-08-25T02:32:53.589Z,99.90
2022-08-25T02:35:22.649Z,99.90
2022-08-25T02:37:52.663Z,99.90
2022-08-25T02:40:23.796Z,99.90
2022-08-25T02:42:54.051Z,99.90
2022-08-25T02:45:23.017Z,99.90
2022-08-25T02:47:51.984Z,99.90
2022-08-25T02:50:20.846Z,99.90
2022-08-25T02:52:50.970Z,99.90
2022-08-25T02:55:20.802Z,99.90
2022-08-25T02:57:49.569Z,99.90
2022-08-25T03:00:20.328Z,99.90
2022-08-25T03:02:49.041Z,99.90
2022-08-25T03:05:18.136Z,99.90
2022-08-25T03:07:46.874Z,99.90
2022-08-25T03:10:19.927Z,99.90
2022-08-25T03:12:48.962Z,99.90
2022-08-25T03:15:19.763Z,99.90
2022-08-25T03:17:50.601Z,99.90
2022-08-25T03:20:20.186Z,99.90
2022-08-25T03:22:49.252Z,99.90
2022-08-25T03:25:35.257Z,99.90
2022-08-25T03:28:05.203Z,99.90
2022-08-25T03:30:35.994Z,99.90
2022-08-25T03:33:04.870Z,99.90
2022-08-25T03:35:33.534Z,99.90
2022-08-25T03:38:02.394Z,99.90
2022-08-25T03:40:31.369Z,99.90
2022-08-25T03:43:00.372Z,99.90
2022-08-25T03:45:29.212Z,99.90
2022-08-25T03:47:59.692Z,99.90
2022-08-25T03:50:28.367Z,99.90
2022-08-25T03:52:58.346Z,99.90
2022-08-25T03:55:27.757Z,99.90
2022-08-25T03:57:57.733Z,99.90
2022-08-25T04:00:26.398Z,99.90
2022-08-25T04:02:55.027Z,99.90
2022-08-25T04:05:25.060Z,99.90
2022-08-25T04:07:56.114Z,99.90
2022-08-25T04:10:24.969Z,99.90
2022-08-25T04:12:53.664Z,99.90
2022-08-25T04:15:22.281Z,99.90
2022-08-25T04:17:51.967Z,99.90
2022-08-25T04:20:24.454Z,99.90
2022-08-25T04:22:53.118Z,99.90
2022-08-25T04:25:21.889Z,99.90
2022-08-25T04:27:51.015Z,99.90
2022-08-25T04:30:19.953Z,99.90
2022-08-25T04:32:49.443Z,99.90
2022-08-25T04:35:18.418Z,99.90
2022-08-25T04:37:49.082Z,99.90
2022-08-25T04:40:17.914Z,99.90
2022-08-25T04:42:48.223Z,99.90
2022-08-25T04:45:17.170Z,99.90
2022-08-25T04:47:46.270Z,99.90
2022-08-25T04:50:14.899Z,99.90
2022-08-25T04:52:43.604Z,99.90
2022-08-25T04:55:13.713Z,99.90
2022-08-25T04:57:42.370Z,99.90
2022-08-25T05:00:13.162Z,99.90
2022-08-25T05:02:41.841Z,99.90
2022-08-25T05:05:10.521Z,99.90
2022-08-25T05:07:39.435Z,99.90
2022-08-25T05:10:09.351Z,99.90
2022-08-25T05:12:39.573Z,99.90
2022-08-25T05:15:24.604Z,99.90
2022-08-25T05:17:55.973Z,99.90
2022-08-25T05:20:25.379Z,99.90
2022-08-25T05:22:54.311Z,99.90
2022-08-25T05:25:23.029Z,99.90
2022-08-25T05:27:53.138Z,99.90
2022-08-25T05:30:21.875Z,99.90
2022-08-25T05:32:50.533Z,99.90
2022-08-25T05:35:20.065Z,99.90
2022-08-25T05:37:49.067Z,99.90
2022-08-25T05:40:17.836Z,99.90
2022-08-25T05:42:46.424Z,99.90
2022-08-25T05:45:17.392Z,99.90
2022-08-25T05:47:49.464Z,99.90
2022-08-25T05:50:19.050Z,99.90
2022-08-25T05:52:47.900Z,99.90
2022-08-25T05:55:16.828Z,99.90
2022-08-25T05:57:45.577Z,99.90
2022-08-25T06:00:17.457Z,99.90
2022-08-25T06:02:46.591Z,99.90
2022-08-25T06:05:17.677Z,99.90
2022-08-25T06:07:47.018Z,99.90
2022-08-25T06:10:16.854Z,99.90
2022-08-25T06:12:46.718Z,99.90
2022-08-25T06:15:18.707Z,99.90
2022-08-25T06:17:48.293Z,99.90
2022-08-25T06:20:19.427Z,99.90
2022-08-25T06:22:51.195Z,99.90
2022-08-25T06:25:22.326Z,99.90
2022-08-25T06:27:51.382Z,99.90
2022-08-25T06:30:28.676Z,99.90
2022-08-25T06:32:57.726Z,99.90
2022-08-25T06:35:26.376Z,99.90
2022-08-25T06:37:55.019Z,99.90
2022-08-25T06:40:24.580Z,99.90
2022-08-25T06:42:53.519Z,99.90
2022-08-25T06:45:23.573Z,98.30
2022-08-25T06:47:53.114Z,91.50
2022-08-25T06:50:21.930Z,65.60
2022-08-25T06:52:52.101Z,77.60
2022-08-25T06:55:21.203Z,42.90
2022-08-25T06:57:49.903Z,9.20
2022-08-25T07:00:19.000Z,1.00
2022-08-25T07:02:49.016Z,1.00
2022-08-25T07:05:33.552Z,1.00
2022-08-25T07:08:02.673Z,1.00
2022-08-25T07:10:31.690Z,1.00
2022-08-25T07:13:00.310Z,1.00
2022-08-25T07:15:28.940Z,1.00
2022-08-25T07:17:59.541Z,99.90
2022-08-25T07:20:29.521Z,99.90
2022-08-25T07:22:59.224Z,99.90
2022-08-25T07:25:28.034Z,99.90
2022-08-25T07:27:59.052Z,1.00
2022-08-25T07:30:28.447Z,99.90
2022-08-25T07:32:58.444Z,99.90
2022-08-25T07:35:27.554Z,99.90
2022-08-25T07:38:10.148Z,1.00
2022-08-25T07:40:42.737Z,1.00
2022-08-25T07:43:11.864Z,99.90
2022-08-25T07:45:49.167Z,1.00
2022-08-25T07:48:20.804Z,28.10
2022-08-25T07:50:49.989Z,95.50
2022-08-25T07:53:19.334Z,99.90
2022-08-25T07:55:47.920Z,99.90
2022-08-25T07:58:16.788Z,99.90
2022-08-25T08:00:48.800Z,99.90
2022-08-25T08:03:42.198Z,99.90
2022-08-25T08:06:11.779Z,99.90
2022-08-25T08:08:43.527Z,87.80
2022-08-25T08:11:18.210Z,91.40
2022-08-25T08:13:48.215Z,3.60
2022-08-25T08:16:20.933Z,5.50
2022-08-25T08:18:51.665Z,1.00
2022-08-25T08:21:22.758Z,1.00
2022-08-25T08:23:58.076Z,1.00
2022-08-25T08:26:48.221Z,1.00
2022-08-25T08:29:17.329Z,1.00
2022-08-25T08:31:48.752Z,1.00
2022-08-25T08:34:19.486Z,1.00
2022-08-25T08:36:53.813Z,1.00
2022-08-25T08:39:23.300Z,1.00
2022-08-25T08:42:20.927Z,1.00
2022-08-25T08:45:17.543Z,1.00
2022-08-25T08:47:56.485Z,1.00
2022-08-25T08:50:33.906Z,1.00
2022-08-25T08:53:09.456Z,1.00
2022-08-25T08:55:41.363Z,1.00
2022-08-25T08:58:17.999Z,1.00
2022-08-25T09:00:52.463Z,1.00
2022-08-25T09:03:35.430Z,1.00
2022-08-25T09:06:09.268Z,1.00
2022-08-25T09:08:44.568Z,1.00
2022-08-25T09:11:20.463Z,1.00
2022-08-25T09:14:20.200Z,1.00
2022-08-25T09:16:59.049Z,1.00
2022-08-25T09:19:48.633Z,1.00
2022-08-25T09:22:36.383Z,1.00
2022-08-25T09:25:14.533Z,1.00
2022-08-25T09:27:55.136Z,1.00
2022-08-25T09:30:25.187Z,1.00
2022-08-25T09:33:05.306Z,1.00
2022-08-25T09:35:37.838Z,1.00
2022-08-25T09:38:10.303Z,1.00
2022-08-25T09:40:42.528Z,1.00
2022-08-25T09:43:23.119Z,1.00
2022-08-25T09:46:01.312Z,1.00
2022-08-25T09:48:40.592Z,1.00
2022-08-25T09:51:22.067Z,1.00
2022-08-25T09:53:57.130Z,1.00
2022-08-25T09:56:28.167Z,1.00
2022-08-25T09:59:03.018Z,1.00
2022-08-25T10:01:34.806Z,1.00
2022-08-25T10:04:05.691Z,1.00
2022-08-25T10:06:45.842Z,1.00
2022-08-25T10:09:29.671Z,1.00
2022-08-25T10:12:01.332Z,1.00
2022-08-25T10:14:36.488Z,1.00
2022-08-25T10:17:27.384Z,1.00
2022-08-25T10:20:16.444Z,1.00
2022-08-25T10:22:48.272Z,1.00
2022-08-25T10:25:31.382Z,1.00
2022-08-25T10:28:12.702Z,1.00
2022-08-25T10:30:55.916Z,1.00
2022-08-25T10:33:34.184Z,1.00
2022-08-25T10:36:10.799Z,1.00
2022-08-25T10:38:43.285Z,1.00
2022-08-25T10:41:44.092Z,1.00
2022-08-25T10:44:40.524Z,1.00
2022-08-25T10:47:29.906Z,1.00
2022-08-25T10:50:05.645Z,1.00
2022-08-25T10:52:40.672Z,1.00
2022-08-25T10:55:18.690Z,1.00
2022-08-25T10:57:57.852Z,1.00
2022-08-25T11:00:35.822Z,1.00
2022-08-25T11:03:19.286Z,1.00
2022-08-25T11:05:52.636Z,1.00
2022-08-25T11:08:33.832Z,1.00
2022-08-25T11:11:14.281Z,1.00
2022-08-25T11:13:54.653Z,1.00
2022-08-25T11:16:33.379Z,1.00
2022-08-25T11:19:08.692Z,1.00
2022-08-25T11:21:46.050Z,1.00
2022-08-25T11:24:31.292Z,1.00
2022-08-25T11:27:01.216Z,1.00
2022-08-25T11:29:37.051Z,1.00
2022-08-25T11:32:08.916Z,1.00
2022-08-25T11:34:43.623Z,1.00
2022-08-25T11:37:21.813Z,1.00
2022-08-25T11:40:22.697Z,1.00
2022-08-25T11:43:24.607Z,1.00
2022-08-25T11:46:21.173Z,1.00
2022-08-25T11:49:04.834Z,1.00
2022-08-25T11:51:42.220Z,1.00
2022-08-25T11:54:21.285Z,1.00
2022-08-25T11:56:58.153Z,1.00
2022-08-25T12:00:09.547Z,1.00
2022-08-25T12:02:42.777Z,1.00
2022-08-25T12:05:33.627Z,1.00
2022-08-25T12:08:31.887Z,1.00
2022-08-25T12:11:07.163Z,1.00
2022-08-25T12:13:45.960Z,1.00
2022-08-25T12:16:47.702Z,1.00
2022-08-25T12:19:49.909Z,1.00
2022-08-25T12:22:44.495Z,1.00
2022-08-25T12:25:40.275Z,1.00
2022-08-25T12:28:35.393Z,1.00
2022-08-25T12:31:11.231Z,1.00
2022-08-25T12:33:49.590Z,1.00
2022-08-25T12:36:36.043Z,1.00
2022-08-25T12:39:24.616Z,1.00
2022-08-25T12:45:07.171Z,1.00
2022-08-25T12:47:37.767Z,1.00
2022-08-25T12:50:33.459Z,1.00
2022-08-25T12:53:13.651Z,1.00
2022-08-25T12:55:48.777Z,1.00
2022-08-25T12:58:18.123Z,1.00
2022-08-25T13:01:15.670Z,1.00
2022-08-25T13:04:48.337Z,1.00
2022-08-25T13:07:31.498Z,1.00
2022-08-25T13:10:19.949Z,1.00
2022-08-25T13:12:56.857Z,1.00
2022-08-25T13:15:38.538Z,1.00
2022-08-25T13:18:21.055Z,1.00
2022-08-25T13:20:55.169Z,1.00
2022-08-25T13:23:29.146Z,1.00
2022-08-25T13:26:02.532Z,1.00
2022-08-25T13:28:40.728Z,1.00
2022-08-25T13:31:19.446Z,1.00
2022-08-25T13:33:58.232Z,1.00
2022-08-25T13:36:52.036Z,1.00
2022-08-25T13:39:52.849Z,1.00
2022-08-25T13:42:23.959Z,1.00
2022-08-25T13:44:59.531Z,1.00
2022-08-25T13:47:43.647Z,1.00
2022-08-25T13:50:34.243Z,1.00
2022-08-25T13:53:11.338Z,1.00
2022-08-25T13:55:50.989Z,1.00
2022-08-25T13:58:34.325Z,1.00
2022-08-25T14:01:19.927Z,1.00
2022-08-25T14:04:32.798Z,1.00
2022-08-25T14:07:34.024Z,1.00
2022-08-25T14:10:07.190Z,1.00
2022-08-25T14:12:39.951Z,1.00
2022-08-25T14:15:13.223Z,1.00
2022-08-25T14:17:49.429Z,1.00
2022-08-25T14:20:28.385Z,1.00
2022-08-25T14:23:09.849Z,1.00
2022-08-25T14:25:40.760Z,1.00
2022-08-25T14:28:16.570Z,1.00
2022-08-25T14:30:51.671Z,1.00
2022-08-25T14:33:27.994Z,1.00
2022-08-25T14:36:03.020Z,1.00
2022-08-25T14:38:33.725Z,1.00
2022-08-25T14:43:37.284Z,1.00
2022-08-25T14:46:15.409Z,1.00
2022-08-25T14:48:49.459Z,1.00
2022-08-25T14:51:20.720Z,1.00
2022-08-25T14:53:52.678Z,1.00
2022-08-25T14:56:25.914Z,1.00
2022-08-25T14:59:00.626Z,1.00
2022-08-25T15:01:36.310Z,1.00
2022-08-25T15:04:15.731Z,1.00
2022-08-25T15:06:47.918Z,1.00
2022-08-25T15:09:19.210Z,1.00
2022-08-25T15:11:59.422Z,1.00
2022-08-25T15:14:35.541Z,1.00
2022-08-25T15:17:08.712Z,1.00
2022-08-25T15:19:44.662Z,1.00
2022-08-25T15:22:29.750Z,1.00
2022-08-25T15:25:26.788Z,1.00
2022-08-25T15:28:03.307Z,1.00
2022-08-25T15:30:53.604Z,1.00
2022-08-25T15:33:34.392Z,1.00
2022-08-25T15:36:16.965Z,1.00
2022-08-25T15:39:02.729Z,1.00
2022-08-25T15:41:45.056Z,1.00
2022-08-25T15:44:17.030Z,1.00
2022-08-25T15:46:57.406Z,1.00
2022-08-25T15:49:33.871Z,1.00
2022-08-25T15:52:46.665Z,1.00
2022-08-25T15:55:29.124Z,1.00
2022-08-25T15:57:59.264Z,1.00
2022-08-25T16:00:31.806Z,1.00
2022-08-25T16:07:35.103Z,1.00
2022-08-25T16:11:32.053Z,18.70
2022-08-25T16:17:28.448Z,73.90
2022-08-25T16:20:25.043Z,71.70
2022-08-25T16:23:11.655Z,67.70
2022-08-25T16:29:09.580Z,99.90
2022-08-25T16:31:41.625Z,99.90
2022-08-25T16:34:15.004Z,99.90
2022-08-25T16:40:10.599Z,99.90
2022-08-25T16:42:41.867Z,99.90
2022-08-25T16:45:16.363Z,99.90
2022-08-25T16:48:24.585Z,99.90
2022-08-25T16:55:02.502Z,99.90
2022-08-25T16:58:18.523Z,99.90
2022-08-25T17:01:20.823Z,99.90
2022-08-25T17:03:54.642Z,99.90
2022-08-25T17:06:28.404Z,99.90
2022-08-25T17:08:58.494Z,99.90
2022-08-25T17:11:30.662Z,99.90
2022-08-25T17:14:10.960Z,99.90
2022-08-25T17:16:40.225Z,99.90
2022-08-25T17:19:15.865Z,99.90
2022-08-25T17:22:14.839Z,1.00
2022-08-25T17:25:15.054Z,1.00
2022-08-25T17:28:03.189Z,1.00
2022-08-25T17:31:31.975Z,99.90
2022-08-25T17:34:33.830Z,1.00
2022-08-25T17:37:29.904Z,99.90
2022-08-25T17:40:26.546Z,99.90
2022-08-25T17:43:04.366Z,99.90
2022-08-25T17:45:46.721Z,99.90
2022-08-25T17:48:27.503Z,99.90
2022-08-25T17:50:57.444Z,99.90
2022-08-25T17:53:55.083Z,99.90
2022-08-25T17:56:36.562Z,1.00
2022-08-25T17:59:33.759Z,99.90
2022-08-25T18:02:12.521Z,1.00
2022-08-25T18:04:57.955Z,99.90
2022-08-25T18:08:52.240Z,1.00
2022-08-25T18:11:30.096Z,1.00
2022-08-25T18:14:10.838Z,99.90
2022-08-25T18:16:42.217Z,99.90
2022-08-25T18:19:14.334Z,99.90
2022-08-25T18:22:21.167Z,1.00
2022-08-25T18:28:40.129Z,99.90
2022-08-25T18:31:14.154Z,99.90
2022-08-25T18:33:45.539Z,99.90
2022-08-25T18:36:17.407Z,99.90
2022-08-25T18:39:05.536Z,1.00
2022-08-25T18:41:38.245Z,1.00
2022-08-25T18:44:07.627Z,1.00
2022-08-25T18:46:37.114Z,1.00
2022-08-25T18:49:06.243Z,13.50
2022-08-25T18:51:36.940Z,1.00
2022-08-25T18:54:06.632Z,1.00
2022-08-25T18:56:36.990Z,99.90
2022-08-25T18:59:05.909Z,99.90
2022-08-25T19:01:35.828Z,99.90
2022-08-25T19:04:05.584Z,99.90
2022-08-25T19:06:37.892Z,99.90
2022-08-25T19:09:07.545Z,99.90
2022-08-25T19:11:36.451Z,99.90
2022-08-25T19:14:12.222Z,99.90
2022-08-25T19:16:43.891Z,99.90
2022-08-25T19:19:14.001Z,99.90
2022-08-25T19:21:44.738Z,1.00
2022-08-25T19:24:17.732Z,1.00
2022-08-25T19:26:49.581Z,1.00
2022-08-25T19:29:21.477Z,1.00
2022-08-25T19:31:51.236Z,1.00
2022-08-25T19:34:28.235Z,1.00
2022-08-25T19:37:03.085Z,1.00
2022-08-25T19:39:35.527Z,1.00
2022-08-25T19:42:37.224Z,1.00
2022-08-25T19:44:59.446Z,1.00
2022-08-25T19:47:30.059Z,1.00
2022-08-25T19:50:01.206Z,1.00
2022-08-25T19:52:31.948Z,1.00
2022-08-25T19:55:04.593Z,1.00
2022-08-25T19:57:42.790Z,1.00
2022-08-25T20:00:16.142Z,1.00
2022-08-25T20:02:46.535Z,1.00
2022-08-25T20:05:23.845Z,1.00
2022-08-25T20:07:56.775Z,1.00
2022-08-25T20:10:28.448Z,1.00
2022-08-25T20:12:57.634Z,1.00
2022-08-25T20:15:27.657Z,1.00
2022-08-25T20:17:56.918Z,1.00
2022-08-25T20:20:32.416Z,1.00
2022-08-25T20:23:19.305Z,1.00
2022-08-25T20:25:48.700Z,1.00
2022-08-25T20:28:19.305Z,1.00
2022-08-25T20:30:48.506Z,1.00
2022-08-25T20:33:22.916Z,1.00
2022-08-25T20:35:53.011Z,1.00
2022-08-25T20:38:23.975Z,1.00
2022-08-25T20:40:53.024Z,1.00
2022-08-25T20:43:22.080Z,1.00
2022-08-25T20:45:51.424Z,1.00
2022-08-25T20:48:20.343Z,1.00
2022-08-25T20:50:54.359Z,1.00
2022-08-25T20:53:28.284Z,1.00
2022-08-25T20:55:57.880Z,1.00
2022-08-25T20:58:26.748Z,1.00
2022-08-25T21:00:55.656Z,1.00
2022-08-25T21:03:24.821Z,1.00
2022-08-25T21:05:54.207Z,10.00
2022-08-25T21:08:23.651Z,10.30
2022-08-25T21:10:54.073Z,17.30
2022-08-25T21:13:22.937Z,59.20
2022-08-25T21:15:51.808Z,83.40
2022-08-25T21:18:20.963Z,72.40
2022-08-25T21:20:49.776Z,52.60
2022-08-25T21:23:18.839Z,36.90
2022-08-25T21:25:47.637Z,46.40
2022-08-25T21:28:18.230Z,32.40
2022-08-25T21:30:50.322Z,55.90
2022-08-25T21:33:19.124Z,56.40
2022-08-25T21:35:48.145Z,65.20
2022-08-25T21:38:18.089Z,77.80
2022-08-25T21:40:46.804Z,79.50
2022-08-25T21:43:18.933Z,56.80
2022-08-25T21:45:47.701Z,91.60
2022-08-25T21:48:16.990Z,99.90
2022-08-25T21:50:45.675Z,99.90
2022-08-25T21:53:14.502Z,95.40
2022-08-25T21:55:45.529Z,91.00
2022-08-25T21:58:14.241Z,64.10
2022-08-25T22:00:44.935Z,90.90
2022-08-25T22:03:13.727Z,72.00
2022-08-25T22:05:45.600Z,79.80
2022-08-25T22:08:14.533Z,80.80
2022-08-25T22:10:45.839Z,91.50
2022-08-25T22:13:14.607Z,90.70
2022-08-25T22:15:44.802Z,91.90
2022-08-25T22:18:13.552Z,90.90
2022-08-25T22:20:42.331Z,98.10
2022-08-25T22:23:11.138Z,95.30
2022-08-25T22:25:49.136Z,95.70
2022-08-25T22:28:18.441Z,93.90
2022-08-25T22:30:48.808Z,99.90
2022-08-25T22:33:17.817Z,99.90
2022-08-25T22:35:46.747Z,99.90
2022-08-25T22:38:15.873Z,99.90
2022-08-25T22:40:45.579Z,99.90
2022-08-25T22:43:15.339Z,99.90
2022-08-25T22:45:44.334Z,99.90
2022-08-25T22:48:14.599Z,99.90
2022-08-25T22:50:43.421Z,99.90
2022-08-25T22:53:13.337Z,99.90
2022-08-25T22:55:45.594Z,99.90
2022-08-25T22:58:15.350Z,99.90
2022-08-25T23:00:44.055Z,99.90
2022-08-25T23:03:14.331Z,99.90
2022-08-25T23:05:43.080Z,99.90
2022-08-25T23:08:11.729Z,99.90
2022-08-25T23:10:40.567Z,99.90
2022-08-25T23:13:09.300Z,99.90
2022-08-25T23:15:38.199Z,99.90
2022-08-25T23:18:08.060Z,99.90
2022-08-25T23:20:55.911Z,99.90
2022-08-25T23:23:25.839Z,99.90
2022-08-25T23:25:55.380Z,99.90
2022-08-25T23:28:24.055Z,99.90
2022-08-25T23:30:59.359Z,99.90
2022-08-25T23:33:28.749Z,99.90
2022-08-25T23:36:04.345Z,99.90
2022-08-25T23:38:33.305Z,99.90
2022-08-25T23:41:07.627Z,99.90
2022-08-25T23:43:38.473Z,99.90
2022-08-25T23:46:08.176Z,99.90
2022-08-25T23:48:36.937Z,99.90
2022-08-25T23:51:07.833Z,99.90
2022-08-25T23:53:36.940Z,99.90
2022-08-25T23:56:06.711Z,99.90
2022-08-25T23:58:36.137Z,99.90
